Grandes-Piles, Canada
Current Conditions -  °F | °C
As of 11:00 AM on Thursday 29 Jan 2015 (Local Time) from CYRQ Reporting Station
Clear Clear  
Wind Chill:   Ceiling: Unl
Heat Index:   Visibility: 9mi
Dew Point:   Wind: 3mph
Humidity: 67%   Direction: 40°NE
Pressure: 30.24"   Gusts: NA
Location:  46.68°N, 72.72°W
Report Text: CYRQ 291600Z AUTO 04003KT 9SM CLR M13/M18 A3024 RMK SLP246
Loading
Personal Weather Stations






























Interactive Weather Map New forecast layout! Learn more

10-Day Weather Forecast

Advertisements
Track Severe Weather on mobile